Time;durP1;ratioP1;P1;durP2;ratioP2;P2;SDS_P1;SDS_P2;PMS_P1;PMS_P2;Temp;Humidity;BMP_temperature;BMP_pressure;BME280_temperature;BME280_humidity;BME280_pressure;Samples;Min_cycle;Max_cycle;Signal;HPM_P1;HPM_P2
2022/02/23 00:00:24;;;;;;;54.38;7.57;;;6.20;99.90;;;;;;5038980;28;20021;-58
2022/02/23 00:02:50;;;;;;;51.58;6.97;;;6.20;99.90;;;;;;5045105;28;20029;-58
2022/02/23 00:05:16;;;;;;;59.80;7.53;;;6.20;99.90;;;;;;5042941;28;20032;-60
2022/02/23 00:07:41;;;;;;;54.45;7.95;;;6.20;99.90;;;;;;5048865;28;20033;-60
2022/02/23 00:10:07;;;;;;;55.13;8.70;;;6.20;99.90;;;;;;5045927;28;20076;-59
2022/02/23 00:12:34;;;;;;;57.45;7.05;;;6.30;99.90;;;;;;5046514;28;20041;-59
2022/02/23 00:14:59;;;;;;;51.70;7.50;;;6.30;99.90;;;;;;5046939;28;20034;-60
2022/02/23 00:17:26;;;;;;;55.25;7.80;;;6.30;99.90;;;;;;5047575;28;20052;-60
2022/02/23 00:19:56;;;;;;;49.03;7.60;;;6.30;99.90;;;;;;5048695;28;20036;-59
2022/02/23 00:22:22;;;;;;;47.38;7.40;;;6.30;99.90;;;;;;5044926;28;20108;-61
2022/02/23 00:24:48;;;;;;;59.28;8.07;;;6.30;99.90;;;;;;5045678;28;20361;-61
2022/02/23 00:27:14;;;;;;;50.88;8.95;;;6.40;99.90;;;;;;5049716;28;20102;-62
2022/02/23 00:29:40;;;;;;;60.42;9.23;;;6.40;99.90;;;;;;5043639;28;20080;-62
2022/02/23 00:32:06;;;;;;;57.75;7.25;;;6.40;99.90;;;;;;5051026;28;20025;-62
2022/02/23 00:34:31;;;;;;;57.17;7.63;;;6.40;99.90;;;;;;5050008;28;20032;-62
2022/02/23 00:36:57;;;;;;;58.05;8.27;;;6.40;99.90;;;;;;5043072;28;20025;-62
2022/02/23 00:39:23;;;;;;;58.85;8.18;;;6.40;99.90;;;;;;5049597;28;20037;-62
2022/02/23 00:41:49;;;;;;;51.83;7.00;;;6.50;99.90;;;;;;5033278;28;20128;-62
2022/02/23 00:44:15;;;;;;;58.13;8.55;;;6.50;99.90;;;;;;5050854;28;20040;-60
2022/02/23 00:46:41;;;;;;;46.15;8.52;;;6.50;99.90;;;;;;5048409;28;20114;-62
2022/02/23 00:49:07;;;;;;;66.78;8.65;;;6.50;99.90;;;;;;5049702;28;20032;-62
2022/02/23 00:51:33;;;;;;;52.70;8.30;;;6.50;99.90;;;;;;5042557;28;20052;-62
2022/02/23 00:53:58;;;;;;;52.40;8.27;;;6.60;99.90;;;;;;5042573;28;20117;-62
2022/02/23 00:56:24;;;;;;;42.63;7.50;;;6.60;99.90;;;;;;5050447;28;20040;-60
2022/02/23 00:58:50;;;;;;;60.20;8.32;;;6.60;99.90;;;;;;5042678;28;20091;-60
2022/02/23 01:01:16;;;;;;;60.35;7.50;;;6.60;99.90;;;;;;5051013;28;20028;-60
2022/02/23 01:03:41;;;;;;;64.95;9.57;;;6.70;99.90;;;;;;5041799;28;20045;-63
2022/02/23 01:06:07;;;;;;;54.22;8.48;;;6.60;99.90;;;;;;5049601;28;20033;-60
2022/02/23 01:08:33;;;;;;;70.20;9.88;;;6.70;99.90;;;;;;5042189;28;20041;-61
2022/02/23 01:10:59;;;;;;;54.15;6.97;;;6.70;99.90;;;;;;5051217;28;20036;-61
2022/02/23 01:13:25;;;;;;;64.07;6.93;;;6.60;99.90;;;;;;5041655;28;20363;-61
2022/02/23 01:15:51;;;;;;;49.63;8.15;;;6.60;99.90;;;;;;5042540;28;20364;-59
2022/02/23 01:18:17;;;;;;;61.83;6.72;;;6.70;99.90;;;;;;5052015;28;20032;-61
2022/02/23 01:20:43;;;;;;;58.55;7.53;;;6.70;99.90;;;;;;5042178;28;20112;-61
2022/02/23 01:23:09;;;;;;;57.58;7.70;;;6.60;99.90;;;;;;5051406;28;20032;-60
2022/02/23 01:25:34;;;;;;;59.38;6.47;;;6.70;99.90;;;;;;5041169;28;20391;-61
2022/02/23 01:28:02;;;;;;;57.17;7.50;;;6.70;99.90;;;;;;5049724;28;20076;-61
2022/02/23 01:30:29;;;;;;;42.88;6.97;;;6.70;99.90;;;;;;5049675;28;20024;-60
2022/02/23 01:32:54;;;;;;;50.38;7.13;;;6.70;99.90;;;;;;5050583;28;20067;-60
2022/02/23 01:35:20;;;;;;;69.38;8.75;;;6.70;99.90;;;;;;5039223;28;20119;-61
2022/02/23 01:37:46;;;;;;;48.53;7.70;;;6.70;99.90;;;;;;5037644;28;20099;-61
2022/02/23 01:40:13;;;;;;;53.30;8.00;;;6.70;99.90;;;;;;5038534;28;20030;-61
2022/02/23 01:42:39;;;;;;;61.55;8.57;;;6.70;99.90;;;;;;5033599;28;20030;-60
2022/02/23 01:45:05;;;;;;;49.17;7.85;;;6.70;99.90;;;;;;5049639;28;20029;-61
2022/02/23 01:47:31;;;;;;;58.95;7.03;;;6.70;99.90;;;;;;5027658;28;20486;-61
2022/02/23 01:49:57;;;;;;;49.58;7.72;;;6.60;99.90;;;;;;5049935;28;20025;-61
2022/02/23 01:52:26;;;;;;;46.45;7.07;;;6.60;99.90;;;;;;5041254;28;20029;-62
2022/02/23 01:54:55;;;;;;;58.58;7.35;;;6.70;99.90;;;;;;5049419;28;20029;-62
2022/02/23 01:57:22;;;;;;;53.55;7.75;;;6.70;99.90;;;;;;5043066;28;20022;-60
2022/02/23 01:59:49;;;;;;;50.00;7.47;;;6.70;99.90;;;;;;5047802;28;20453;-61
2022/02/23 02:02:16;;;;;;;57.35;7.45;;;6.60;99.90;;;;;;5044379;28;20483;-59
2022/02/23 02:04:42;;;;;;;71.18;8.35;;;6.60;99.90;;;;;;5047173;28;20103;-60
2022/02/23 02:07:08;;;;;;;40.47;6.32;;;6.70;99.90;;;;;;5044562;28;20085;-61
2022/02/23 02:09:33;;;;;;;50.13;6.50;;;6.60;99.90;;;;;;5046484;28;20078;-60
2022/02/23 02:11:59;;;;;;;65.03;8.68;;;6.60;99.90;;;;;;5042506;28;20025;-60
2022/02/23 02:14:24;;;;;;;50.30;7.22;;;6.60;99.90;;;;;;5049541;28;20044;-63
2022/02/23 02:16:51;;;;;;;51.50;7.60;;;6.60;99.90;;;;;;5046547;28;20040;-61
2022/02/23 02:19:17;;;;;;;52.15;7.57;;;6.50;99.90;;;;;;5044958;28;20027;-61
2022/02/23 02:22:10;;;;;;;46.30;6.82;;;6.50;99.90;;;;;;5047714;28;20535;-61
2022/02/23 02:24:38;;;;;;;42.50;6.70;;;6.50;99.90;;;;;;5044523;28;20071;-59
2022/02/23 02:27:10;;;;;;;49.63;6.90;;;6.50;99.90;;;;;;5038458;28;20048;-63
2022/02/23 02:29:37;;;;;;;56.08;7.28;;;6.50;99.90;;;;;;5045192;28;20493;-60
2022/02/23 02:32:03;;;;;;;52.90;7.95;;;6.50;99.90;;;;;;5036019;28;20055;-62
2022/02/23 02:34:29;;;;;;;49.88;7.25;;;6.40;99.90;;;;;;5049336;28;20635;-62
2022/02/23 02:36:56;;;;;;;41.45;7.35;;;6.50;99.90;;;;;;5048861;28;20092;-58
2022/02/23 02:39:23;;;;;;;50.33;6.93;;;6.50;99.90;;;;;;5027899;28;20075;-60
2022/02/23 02:41:49;;;;;;;54.33;8.32;;;6.50;99.90;;;;;;5037020;28;20102;-59
2022/02/23 02:44:14;;;;;;;53.17;6.18;;;6.50;99.90;;;;;;5042478;28;20550;-61
2022/02/23 02:46:41;;;;;;;50.90;7.47;;;6.50;99.90;;;;;;5039329;28;20037;-61
2022/02/23 02:49:07;;;;;;;49.00;6.78;;;6.50;99.90;;;;;;5049431;28;20028;-61
2022/02/23 02:51:33;;;;;;;58.30;6.80;;;6.50;99.90;;;;;;5040007;28;20026;-60
2022/02/23 02:53:59;;;;;;;49.00;7.32;;;6.50;99.90;;;;;;5027706;28;20033;-61
2022/02/23 02:56:25;;;;;;;54.33;7.95;;;6.50;99.90;;;;;;5035870;28;20036;-60
2022/02/23 02:58:54;;;;;;;58.17;7.53;;;6.50;99.90;;;;;;5046330;28;20041;-59
2022/02/23 03:01:24;;;;;;;50.33;8.85;;;6.50;99.90;;;;;;5048983;28;20025;-61
2022/02/23 03:03:50;;;;;;;54.47;6.65;;;6.50;99.90;;;;;;5045820;28;20107;-61
2022/02/23 03:06:17;;;;;;;42.15;7.35;;;6.50;99.90;;;;;;5036104;28;20103;-61
2022/02/23 03:08:43;;;;;;;41.97;6.57;;;6.50;99.90;;;;;;5044214;28;20027;-60
2022/02/23 03:11:09;;;;;;;52.22;6.93;;;6.50;99.90;;;;;;5042022;28;20029;-60
2022/02/23 03:13:36;;;;;;;42.28;6.28;;;6.50;99.90;;;;;;5046981;28;20521;-61
2022/02/23 03:16:02;;;;;;;51.22;8.35;;;6.50;99.90;;;;;;5035671;28;20128;-61
2022/02/23 03:18:27;;;;;;;57.22;6.55;;;6.50;99.90;;;;;;5039794;28;20432;-62
2022/02/23 03:20:53;;;;;;;41.75;6.85;;;6.50;99.90;;;;;;5046013;28;20103;-61
2022/02/23 03:23:18;;;;;;;50.90;6.60;;;6.50;99.90;;;;;;5043459;28;20017;-61
2022/02/23 03:25:45;;;;;;;45.50;7.03;;;6.50;99.90;;;;;;5046888;28;20486;-61
2022/02/23 03:28:10;;;;;;;43.67;7.05;;;6.50;99.90;;;;;;5049137;28;20135;-61
2022/02/23 03:30:38;;;;;;;43.10;6.38;;;6.60;99.90;;;;;;5047066;28;20024;-61
2022/02/23 03:33:09;;;;;;;60.70;7.47;;;6.50;99.90;;;;;;5023005;28;20047;-62
2022/02/23 03:35:35;;;;;;;44.13;6.00;;;6.50;99.90;;;;;;5046660;28;20541;-62
2022/02/23 03:38:01;;;;;;;37.40;5.85;;;6.50;99.90;;;;;;5043364;28;20470;-61
2022/02/23 03:40:26;;;;;;;46.97;6.45;;;6.60;99.90;;;;;;5041227;28;20025;-62
2022/02/23 03:42:53;;;;;;;43.85;6.50;;;6.50;99.90;;;;;;5043967;28;20029;-61
2022/02/23 03:45:19;;;;;;;53.72;6.35;;;6.50;99.90;;;;;;5050182;28;20027;-62
2022/02/23 03:47:45;;;;;;;34.72;5.47;;;6.60;99.90;;;;;;5041029;28;20111;-62
2022/02/23 03:50:11;;;;;;;36.85;5.97;;;6.60;99.90;;;;;;5045454;28;20021;-62
2022/02/23 03:52:36;;;;;;;48.40;7.25;;;6.60;99.90;;;;;;5050419;28;20051;-61
2022/02/23 03:55:02;;;;;;;47.22;6.60;;;6.60;99.90;;;;;;5042320;28;20372;-61
2022/02/23 03:57:28;;;;;;;40.42;5.88;;;6.60;99.90;;;;;;5043633;28;20313;-60
2022/02/23 03:59:54;;;;;;;48.50;6.20;;;6.60;99.90;;;;;;5051777;28;20063;-61
2022/02/23 04:02:19;;;;;;;39.95;6.25;;;6.60;99.90;;;;;;5052301;28;20025;-61
2022/02/23 04:04:45;;;;;;;40.97;6.82;;;6.60;99.90;;;;;;5042022;28;20337;-60
2022/02/23 04:07:11;;;;;;;32.72;5.88;;;6.60;99.90;;;;;;5033828;28;20086;-61
2022/02/23 04:09:37;;;;;;;45.00;6.60;;;6.60;99.90;;;;;;5042660;28;20072;-61
2022/02/23 04:12:03;;;;;;;37.72;6.00;;;6.60;99.90;;;;;;5034559;28;20029;-61
2022/02/23 04:14:28;;;;;;;33.63;4.88;;;6.60;99.90;;;;;;5050609;28;20032;-61
2022/02/23 04:16:54;;;;;;;28.25;5.40;;;6.60;99.90;;;;;;5042288;28;20037;-61
2022/02/23 04:19:19;;;;;;;44.55;5.60;;;6.60;99.90;;;;;;5045364;28;20025;-61
2022/02/23 04:21:45;;;;;;;38.05;6.43;;;6.60;99.90;;;;;;5040850;28;20029;-61
2022/02/23 04:24:11;;;;;;;31.85;5.78;;;6.60;99.90;;;;;;5046710;28;20036;-61
2022/02/23 04:26:36;;;;;;;54.67;6.15;;;6.60;99.90;;;;;;5038307;28;20026;-61
2022/02/23 04:29:06;;;;;;;39.58;5.82;;;6.50;99.90;;;;;;5049244;28;20075;-61
2022/02/23 04:31:32;;;;;;;45.30;7.07;;;6.60;99.90;;;;;;5051299;28;20044;-61
2022/02/23 04:34:02;;;;;;;44.20;6.50;;;6.60;99.90;;;;;;5047652;28;20029;-61
2022/02/23 04:36:28;;;;;;;42.45;6.05;;;6.50;99.90;;;;;;5036850;28;20017;-62
2022/02/23 04:38:53;;;;;;;42.55;5.88;;;6.60;99.90;;;;;;5046648;28;20460;-61
2022/02/23 04:41:20;;;;;;;44.95;7.45;;;6.50;99.90;;;;;;5045752;28;20029;-60
2022/02/23 04:43:46;;;;;;;48.22;6.93;;;6.50;99.90;;;;;;5049583;28;20052;-61
2022/02/23 04:46:11;;;;;;;46.72;7.20;;;6.50;99.90;;;;;;5045050;28;20562;-61
2022/02/23 04:48:40;;;;;;;38.00;5.38;;;6.50;99.90;;;;;;5045763;28;20087;-61
2022/02/23 04:51:05;;;;;;;46.90;7.20;;;6.50;99.90;;;;;;5043547;28;20028;-60
2022/02/23 04:53:31;;;;;;;45.65;7.00;;;6.50;99.90;;;;;;5049639;28;20037;-65
2022/02/23 04:55:57;;;;;;;36.25;6.72;;;6.50;99.90;;;;;;5039149;28;20049;-62
2022/02/23 04:58:23;;;;;;;46.47;6.43;;;6.50;99.90;;;;;;5044844;28;20051;-63
2022/02/23 05:00:49;;;;;;;49.67;6.53;;;6.50;99.90;;;;;;5049183;28;20036;-64
2022/02/23 05:03:15;;;;;;;54.42;7.38;;;6.50;99.90;;;;;;5051587;28;20466;-63
2022/02/23 05:05:41;;;;;;;48.70;6.88;;;6.50;99.90;;;;;;5039264;28;20032;-63
2022/02/23 05:08:07;;;;;;;48.95;7.55;;;6.50;99.90;;;;;;5044548;28;20029;-63
2022/02/23 05:10:33;;;;;;;59.00;7.47;;;6.40;99.90;;;;;;5050319;28;20494;-63
2022/02/23 05:12:59;;;;;;;37.55;5.90;;;6.40;99.90;;;;;;5033162;28;20033;-63
2022/02/23 05:15:25;;;;;;;51.47;6.50;;;6.50;99.90;;;;;;5048987;28;20064;-64
2022/02/23 05:17:51;;;;;;;59.83;7.45;;;6.50;99.90;;;;;;5042124;28;20514;-64
2022/02/23 05:20:17;;;;;;;66.07;8.35;;;6.50;99.90;;;;;;5044753;28;20116;-64
2022/02/23 05:22:46;;;;;;;60.55;7.93;;;6.40;99.90;;;;;;5048084;28;20040;-64
2022/02/23 05:25:12;;;;;;;50.25;7.15;;;6.40;99.90;;;;;;5047042;28;20154;-63
2022/02/23 05:27:38;;;;;;;42.58;6.40;;;6.40;99.90;;;;;;5042517;28;20291;-64
2022/02/23 05:30:05;;;;;;;45.05;6.80;;;6.40;99.90;;;;;;5046874;28;20048;-63
2022/02/23 05:32:30;;;;;;;44.80;6.43;;;6.40;99.90;;;;;;5029274;28;20026;-63
2022/02/23 05:34:56;;;;;;;60.30;8.20;;;6.40;99.90;;;;;;5045680;28;20037;-65
2022/02/23 05:37:22;;;;;;;60.13;7.22;;;6.40;99.90;;;;;;5042382;28;20025;-62
2022/02/23 05:39:47;;;;;;;50.63;7.18;;;6.40;99.90;;;;;;5030462;28;20043;-62
2022/02/23 05:42:13;;;;;;;33.67;5.35;;;6.40;99.90;;;;;;5045463;28;20032;-62
2022/02/23 05:44:39;;;;;;;50.53;7.07;;;6.40;99.90;;;;;;5049688;28;20037;-64
2022/02/23 05:47:04;;;;;;;53.35;7.75;;;6.40;99.90;;;;;;5042077;28;20029;-66
2022/02/23 05:49:30;;;;;;;41.55;6.10;;;6.40;99.90;;;;;;5042052;28;20124;-66
2022/02/23 05:51:56;;;;;;;46.97;6.82;;;6.40;99.90;;;;;;5049525;28;20119;-66
2022/02/23 05:54:21;;;;;;;58.25;7.97;;;6.40;99.90;;;;;;5042364;28;20029;-63
2022/02/23 05:56:47;;;;;;;46.95;7.20;;;6.40;99.90;;;;;;5046098;28;20112;-64
2022/02/23 05:59:13;;;;;;;55.80;7.35;;;6.30;99.90;;;;;;5048468;28;20033;-63
2022/02/23 06:01:39;;;;;;;50.15;7.07;;;6.30;99.90;;;;;;5047409;28;20383;-64
2022/02/23 06:04:04;;;;;;;47.60;6.82;;;6.30;99.90;;;;;;5049810;28;20017;-62
2022/02/23 06:06:30;;;;;;;55.03;8.32;;;6.30;99.90;;;;;;5048238;28;20441;-64
2022/02/23 06:08:56;;;;;;;63.67;8.70;;;6.40;99.90;;;;;;5041407;28;20628;-63
2022/02/23 06:11:22;;;;;;;49.22;7.53;;;6.30;99.90;;;;;;5049288;28;20194;-63
2022/02/23 06:13:51;;;;;;;51.10;7.43;;;6.30;99.90;;;;;;5040935;28;20053;-64
2022/02/23 06:16:24;;;;;;;58.60;8.35;;;6.30;99.90;;;;;;5048213;28;20478;-64
2022/02/23 06:18:54;;;;;;;51.03;7.90;;;6.30;99.90;;;;;;5048009;28;21222;-65
2022/02/23 06:21:20;;;;;;;61.80;7.35;;;6.30;99.90;;;;;;5049280;28;20049;-64
2022/02/23 06:23:48;;;;;;;47.33;7.47;;;6.40;99.90;;;;;;5041316;28;20540;-65
2022/02/23 06:26:14;;;;;;;53.42;6.97;;;6.30;99.90;;;;;;5048675;28;20059;-66
2022/02/23 06:28:40;;;;;;;55.00;7.28;;;6.30;99.90;;;;;;5040014;28;20102;-65
2022/02/23 06:31:06;;;;;;;51.60;7.95;;;6.20;99.90;;;;;;5031539;28;20122;-66
2022/02/23 06:33:32;;;;;;;55.72;8.25;;;6.20;99.90;;;;;;5029769;28;20025;-66
2022/02/23 06:35:58;;;;;;;50.45;7.53;;;6.20;99.90;;;;;;5049146;28;20048;-66
2022/02/23 06:38:23;;;;;;;66.40;8.05;;;6.20;99.90;;;;;;5045685;28;20105;-66
2022/02/23 06:40:50;;;;;;;51.03;7.43;;;6.20;99.90;;;;;;5011348;28;20190;-65
2022/02/23 06:43:18;;;;;;;59.67;8.65;;;6.20;99.90;;;;;;5036743;28;20024;-65
2022/02/23 06:45:45;;;;;;;47.25;7.07;;;6.30;99.90;;;;;;5046030;28;20194;-65
2022/02/23 06:48:11;;;;;;;52.30;6.45;;;6.30;99.90;;;;;;5042797;28;20033;-66
2022/02/23 06:50:37;;;;;;;62.60;7.07;;;6.30;99.90;;;;;;5047067;28;20032;-64
2022/02/23 06:53:03;;;;;;;49.65;7.45;;;6.30;99.90;;;;;;5041635;28;20115;-64
2022/02/23 06:55:28;;;;;;;43.88;7.35;;;6.20;99.90;;;;;;5047781;28;20029;-64
2022/02/23 06:57:54;;;;;;;55.60;7.13;;;6.30;99.90;;;;;;5040702;28;20416;-65
2022/02/23 07:00:20;;;;;;;53.85;7.38;;;6.30;99.90;;;;;;5029802;28;20044;-64
2022/02/23 07:02:45;;;;;;;54.63;7.30;;;6.30;99.90;;;;;;5040370;28;20025;-63
2022/02/23 07:05:11;;;;;;;55.80;8.23;;;6.30;99.90;;;;;;5042999;28;20065;-64
2022/02/23 07:07:37;;;;;;;46.85;8.25;;;6.30;99.90;;;;;;5048572;28;20031;-64
2022/02/23 07:10:27;;;;;;;49.80;7.50;;;6.30;99.90;;;;;;5049393;28;20099;-63
2022/02/23 07:12:53;;;;;;;58.15;8.25;;;6.30;99.90;;;;;;5051290;28;20378;-62
2022/02/23 07:15:21;;;;;;;49.88;7.65;;;6.30;99.90;;;;;;5044832;28;20526;-61
2022/02/23 07:17:48;;;;;;;44.03;6.63;;;6.30;99.90;;;;;;5041738;28;20069;-63
2022/02/23 07:20:14;;;;;;;50.60;7.05;;;6.30;99.90;;;;;;5031464;28;20038;-64
2022/02/23 07:22:40;;;;;;;46.08;6.18;;;6.30;99.90;;;;;;5050159;28;20029;-65
2022/02/23 07:25:08;;;;;;;54.38;8.60;;;6.30;99.90;;;;;;5047734;28;20047;-64
2022/02/23 07:27:34;;;;;;;59.72;8.55;;;6.30;99.90;;;;;;5048026;28;20029;-65
2022/02/23 07:30:00;;;;;;;50.80;7.65;;;6.30;99.90;;;;;;5041218;28;20418;-65
2022/02/23 07:32:31;;;;;;;58.10;8.05;;;6.30;99.90;;;;;;5047559;28;20333;-65
2022/02/23 07:34:57;;;;;;;46.25;6.95;;;6.40;99.90;;;;;;5034858;28;20068;-64
2022/02/23 07:37:23;;;;;;;72.40;8.82;;;6.40;99.90;;;;;;5052034;28;20499;-65
2022/02/23 07:39:52;;;;;;;48.13;7.32;;;6.40;99.90;;;;;;5041564;28;20072;-58
2022/02/23 07:42:19;;;;;;;51.20;7.55;;;6.40;99.90;;;;;;5047240;28;20017;-64
2022/02/23 07:44:46;;;;;;;54.70;7.50;;;6.40;99.90;;;;;;5042935;28;20025;-64
2022/02/23 07:47:12;;;;;;;51.90;7.43;;;6.40;99.90;;;;;;5033274;28;20033;-56
2022/02/23 07:49:38;;;;;;;34.53;7.03;;;6.70;99.90;;;;;;5051813;28;20497;-56
2022/02/23 07:52:04;;;;;;;53.58;6.95;;;7.20;99.90;;;;;;5052715;28;20086;-57
2022/02/23 07:54:30;;;;;;;48.20;7.38;;;7.00;99.90;;;;;;5051828;28;20084;-58
2022/02/23 07:56:56;;;;;;;40.95;5.88;;;6.90;99.90;;;;;;5033336;28;20434;-65
2022/02/23 07:59:22;;;;;;;52.05;7.45;;;6.70;99.90;;;;;;5051054;28;20638;-65
2022/02/23 08:01:48;;;;;;;42.28;6.85;;;6.60;99.90;;;;;;5048039;28;20057;-63
2022/02/23 08:04:13;;;;;;;37.95;6.32;;;6.50;99.90;;;;;;5052324;28;20507;-64
2022/02/23 08:06:40;;;;;;;49.95;6.53;;;6.40;99.90;;;;;;5041338;28;20120;-64
2022/02/23 08:09:08;;;;;;;40.00;6.22;;;6.40;99.90;;;;;;5051975;28;20035;-61
2022/02/23 08:11:36;;;;;;;46.92;6.65;;;6.40;99.90;;;;;;5035951;28;20292;-63
2022/02/23 08:14:04;;;;;;;55.92;7.07;;;6.40;99.90;;;;;;5044184;28;20025;-64
2022/02/23 08:22:00;;;;;;;49.10;8.90;;;6.50;99.90;;;;;;5042346;28;20044;-64
2022/02/23 08:24:27;;;;;;;38.05;5.20;;;6.50;99.90;;;;;;5045962;28;20084;-62
2022/02/23 08:26:54;;;;;;;48.63;7.95;;;6.60;99.90;;;;;;5044977;28;20107;-63
2022/02/23 08:29:21;;;;;;;43.17;7.65;;;6.60;99.90;;;;;;5046640;28;20146;-58
2022/02/23 08:31:47;;;;;;;43.88;6.05;;;6.70;99.90;;;;;;5048145;28;20090;-61
2022/02/23 08:34:12;;;;;;;54.40;6.53;;;6.70;99.90;;;;;;5017171;28;20438;-60
2022/02/23 08:36:38;;;;;;;36.30;5.93;;;6.70;99.90;;;;;;5049860;28;20056;-66
2022/02/23 08:39:06;;;;;;;44.10;6.32;;;6.70;99.90;;;;;;5047201;28;20029;-62
2022/02/23 08:41:33;;;;;;;47.47;7.57;;;6.80;99.90;;;;;;5043135;28;20560;-61
2022/02/23 08:44:00;;;;;;;46.75;7.20;;;6.80;99.90;;;;;;5051274;28;20529;-62
2022/02/23 08:46:26;;;;;;;44.88;5.95;;;6.80;99.90;;;;;;5034159;28;20028;-62
2022/02/23 08:48:52;;;;;;;51.83;7.13;;;6.80;99.90;;;;;;5051033;28;20029;-59
2022/02/23 08:51:18;;;;;;;51.28;7.20;;;6.70;99.90;;;;;;5044689;28;20045;-62
2022/02/23 08:53:43;;;;;;;58.13;7.20;;;6.70;99.90;;;;;;5048320;28;20499;-64
2022/02/23 08:56:09;;;;;;;36.85;7.35;;;6.80;99.90;;;;;;5027739;28;20127;-58
2022/02/23 08:58:35;;;;;;;46.88;7.43;;;6.80;99.90;;;;;;5047078;28;20490;-58
2022/02/23 09:01:00;;;;;;;54.53;6.18;;;6.80;99.90;;;;;;5046465;28;20025;-63
2022/02/23 09:03:26;;;;;;;38.63;5.32;;;6.80;99.90;;;;;;5031944;28;20199;-62
2022/02/23 09:05:52;;;;;;;58.05;6.85;;;6.90;99.90;;;;;;5041937;28;20163;-61
2022/02/23 09:08:18;;;;;;;34.08;6.07;;;6.80;99.90;;;;;;5050379;28;20079;-63
2022/02/23 09:10:43;;;;;;;38.17;6.18;;;6.80;99.90;;;;;;5032624;28;20036;-63
2022/02/23 09:13:09;;;;;;;49.47;6.78;;;6.90;99.90;;;;;;5041289;28;20035;-63
2022/02/23 09:15:35;;;;;;;38.63;6.47;;;6.90;99.90;;;;;;5049783;28;20110;-63
2022/02/23 09:18:02;;;;;;;46.50;8.55;;;7.00;99.90;;;;;;5048430;28;20029;-64
2022/02/23 09:20:28;;;;;;;48.30;6.88;;;7.00;99.90;;;;;;5051068;28;20032;-66
2022/02/23 09:22:54;;;;;;;32.58;6.25;;;7.00;99.90;;;;;;5042473;28;20462;-63
2022/02/23 09:25:21;;;;;;;39.95;6.43;;;7.10;99.90;;;;;;5050521;28;20032;-62
2022/02/23 09:27:47;;;;;;;42.97;5.60;;;7.30;99.90;;;;;;5048258;28;20033;-62
2022/02/23 09:30:14;;;;;;;37.47;6.85;;;7.20;99.90;;;;;;5051200;28;20102;-62
2022/02/23 09:32:41;;;;;;;45.13;6.03;;;7.30;99.90;;;;;;5038314;28;20026;-63
2022/02/23 09:35:10;;;;;;;53.72;7.38;;;7.30;99.90;;;;;;5030154;28;20029;-64
2022/02/23 09:37:36;;;;;;;39.33;7.57;;;7.30;99.90;;;;;;5032811;28;20037;-64
2022/02/23 09:40:04;;;;;;;28.15;6.38;;;7.40;99.90;;;;;;5039841;28;20030;-60
2022/02/23 09:42:31;;;;;;;51.78;7.03;;;7.40;99.90;;;;;;5050125;28;20159;-62
2022/02/23 09:44:59;;;;;;;45.08;6.82;;;7.40;99.90;;;;;;5048432;28;20033;-60
2022/02/23 09:47:26;;;;;;;38.17;5.43;;;7.50;99.90;;;;;;5050513;28;20040;-63
2022/02/23 09:49:52;;;;;;;35.53;5.65;;;7.50;99.90;;;;;;5048373;28;20141;-62
2022/02/23 09:52:23;;;;;;;37.22;5.75;;;7.40;99.90;;;;;;5050211;28;20029;-62
2022/02/23 09:54:49;;;;;;;38.85;7.18;;;7.40;99.90;;;;;;5049522;28;20041;-63
2022/02/23 09:57:15;;;;;;;45.75;7.15;;;7.50;99.90;;;;;;5049730;28;20028;-64
2022/02/23 09:59:41;;;;;;;39.53;6.55;;;7.60;99.90;;;;;;5047698;28;20406;-63
2022/02/23 10:02:10;;;;;;;41.95;7.15;;;7.50;99.90;;;;;;5046582;28;20067;-61
2022/02/23 10:04:36;;;;;;;44.42;6.68;;;7.60;99.90;;;;;;5041365;28;20033;-62
2022/02/23 10:07:02;;;;;;;41.47;6.68;;;7.60;99.90;;;;;;5041452;28;20056;-62
2022/02/23 10:09:28;;;;;;;43.22;5.75;;;7.60;99.90;;;;;;5049944;28;20024;-63
2022/02/23 10:11:54;;;;;;;37.58;6.45;;;7.60;99.90;;;;;;5046639;28;20155;-62
2022/02/23 10:14:19;;;;;;;44.10;6.45;;;7.60;99.90;;;;;;5040604;28;20037;-63
2022/02/23 10:16:47;;;;;;;39.17;6.97;;;7.70;99.90;;;;;;5047967;28;20059;-62
2022/02/23 10:19:19;;;;;;;26.83;6.60;;;7.80;99.90;;;;;;5049979;28;20322;-62
2022/02/23 10:21:48;;;;;;;41.65;6.88;;;7.90;99.90;;;;;;5046862;28;20386;-62
2022/02/23 10:24:21;;;;;;;37.42;5.68;;;8.00;99.90;;;;;;5049868;28;20395;-63
2022/02/23 10:27:00;;;;;;;30.65;5.50;;;8.00;99.90;;;;;;5048877;28;20040;-64
2022/02/23 10:29:34;;;;;;;45.78;7.22;;;8.20;99.90;;;;;;5049591;28;20383;-64
2022/02/23 10:32:01;;;;;;;30.00;5.93;;;8.30;99.90;;;;;;5027302;28;20035;-60
2022/02/23 10:34:26;;;;;;;39.50;5.72;;;8.30;99.90;;;;;;5048747;28;20036;-63
2022/02/23 10:37:03;;;;;;;34.40;6.05;;;8.20;99.90;;;;;;5040288;28;20143;-63
2022/02/23 10:39:45;;;;;;;35.25;5.30;;;8.20;99.90;;;;;;5033737;28;20021;-65
2022/02/23 10:42:14;;;;;;;31.73;5.30;;;8.10;99.90;;;;;;5036669;28;20021;-63
2022/02/23 10:44:45;;;;;;;35.72;5.13;;;8.00;99.90;;;;;;5030319;28;20356;-64
2022/02/23 10:47:35;;;;;;;28.48;5.20;;;8.10;99.90;;;;;;5048171;28;20189;-63
2022/02/23 10:50:14;;;;;;;31.55;4.43;;;8.00;99.90;;;;;;5048904;28;20115;-62
2022/02/23 10:52:42;;;;;;;26.30;4.43;;;8.00;99.90;;;;;;5046349;28;20036;-61
2022/02/23 10:55:21;;;;;;;28.73;5.72;;;8.10;99.90;;;;;;5048766;28;20032;-64
2022/02/23 10:57:48;;;;;;;23.73;4.63;;;8.10;99.90;;;;;;5034216;28;20041;-64
2022/02/23 11:00:19;;;;;;;25.38;4.85;;;8.30;99.90;;;;;;5037513;28;20026;-64
2022/02/23 11:02:46;;;;;;;26.13;4.38;;;8.40;99.90;;;;;;5030199;28;20029;-65
2022/02/23 11:05:13;;;;;;;26.38;4.95;;;8.50;99.90;;;;;;5048262;28;20453;-62
2022/02/23 11:07:43;;;;;;;28.35;4.60;;;8.80;99.90;;;;;;5049039;28;20068;-64
2022/02/23 11:10:13;;;;;;;26.75;4.65;;;8.90;99.90;;;;;;5048199;28;20069;-63
2022/02/23 11:13:05;;;;;;;29.55;4.68;;;9.10;99.90;;;;;;5048113;28;20094;-63
2022/02/23 11:15:31;;;;;;;24.95;4.78;;;9.20;99.90;;;;;;5041899;28;20032;-63
2022/02/23 11:17:57;;;;;;;29.80;5.32;;;9.50;99.90;;;;;;5049001;28;20394;-63
2022/02/23 11:20:31;;;;;;;20.33;4.13;;;9.50;99.90;;;;;;5047613;28;20048;-64
2022/02/23 11:23:02;;;;;;;22.30;4.03;;;9.40;99.90;;;;;;5048969;28;20037;-64
2022/02/23 11:25:34;;;;;;;21.23;4.50;;;9.30;99.90;;;;;;5031107;28;20029;-62
2022/02/23 11:28:24;;;;;;;27.42;4.53;;;9.40;99.90;;;;;;5049506;28;20407;-63
2022/02/23 11:30:56;;;;;;;20.27;4.63;;;9.50;99.90;;;;;;5039334;28;20042;-61
2022/02/23 11:33:45;;;;;;;33.60;4.85;;;9.60;99.90;;;;;;5030957;28;20055;-64
2022/02/23 11:36:22;;;;;;;19.38;3.70;;;9.60;99.90;;;;;;5028741;28;20128;-67
2022/02/23 11:38:49;;;;;;;26.80;4.82;;;9.80;99.90;;;;;;5035547;28;20029;-64
2022/02/23 11:41:32;;;;;;;23.92;3.90;;;10.00;99.90;;;;;;5040599;28;20021;-65
2022/02/23 11:44:19;;;;;;;18.88;3.90;;;10.10;99.90;;;;;;5043630;28;20476;-64
2022/02/23 11:46:54;;;;;;;23.45;3.60;;;10.10;99.90;;;;;;5045658;28;20037;-64
2022/02/23 11:49:57;;;;;;;23.20;3.83;;;10.20;99.90;;;;;;5048423;28;20025;-66
2022/02/23 11:55:29;;;;;;;22.63;4.22;;;10.30;99.90;;;;;;5037051;28;20096;-64
2022/02/23 11:58:33;;;;;;;17.45;3.67;;;10.10;99.90;;;;;;5041024;28;20494;-67
2022/02/23 12:01:01;;;;;;;18.45;3.40;;;10.20;99.90;;;;;;5030226;28;20390;-64
2022/02/23 12:03:31;;;;;;;17.17;3.30;;;10.60;99.90;;;;;;5034544;28;20013;-64
2022/02/23 12:06:04;;;;;;;17.55;3.22;;;10.70;99.90;;;;;;5051383;28;20414;-63
2022/02/23 12:08:33;;;;;;;15.80;3.25;;;10.90;99.90;;;;;;5053044;28;20029;-65
2022/02/23 12:11:21;;;;;;;17.38;3.58;;;11.60;99.90;;;;;;5042467;28;20029;-66
2022/02/23 12:13:52;;;;;;;16.77;3.00;;;12.00;99.90;;;;;;5042344;28;20033;-62
2022/02/23 12:16:45;;;;;;;14.52;2.63;;;12.20;99.20;;;;;;5045573;28;20033;-65
2022/02/23 12:19:11;;;;;;;;;;;12.40;98.50;;;;;;5035397;28;20025;-64
2022/02/23 12:21:38;;;;;;;10.43;2.95;;;13.40;96.70;;;;;;5051841;28;19940;-67
2022/02/23 12:24:04;;;;;;;14.32;4.10;;;14.20;94.00;;;;;;5051355;28;20038;-65
2022/02/23 12:26:36;;;;;;;13.57;3.20;;;15.40;91.50;;;;;;5043417;28;20026;-65
2022/02/23 12:29:04;;;;;;;15.88;3.38;;;15.40;82.60;;;;;;5042636;28;20051;-65
2022/02/23 12:31:32;;;;;;;14.23;4.00;;;15.10;84.30;;;;;;5051345;28;20090;-64
2022/02/23 12:34:04;;;;;;;15.57;3.25;;;15.00;84.30;;;;;;5050841;28;20465;-63
2022/02/23 12:36:56;;;;;;;10.82;3.08;;;15.70;84.90;;;;;;5050462;28;20028;-65
2022/02/23 12:39:33;;;;;;;12.65;2.35;;;16.10;80.10;;;;;;5036103;28;20403;-61
2022/02/23 12:42:04;;;;;;;14.20;2.72;;;15.90;78.30;;;;;;5051229;28;20045;-67
2022/02/23 12:44:37;;;;;;;11.70;2.35;;;14.80;80.30;;;;;;5050607;28;20108;-64
2022/02/23 12:47:09;;;;;;;11.82;2.30;;;15.80;82.00;;;;;;5039281;28;20029;-67
2022/02/23 12:49:36;;;;;;;18.00;2.90;;;15.80;77.90;;;;;;5047804;28;20044;-65
2022/02/23 12:52:03;;;;;;;11.18;2.05;;;14.70;79.90;;;;;;5047068;28;20114;-66
2022/02/23 12:54:29;;;;;;;9.60;2.78;;;14.00;81.60;;;;;;5032970;28;20087;-65
2022/02/23 12:56:58;;;;;;;10.68;2.22;;;13.90;85.40;;;;;;5034470;28;20033;-66